Time;durP1;ratioP1;P1;durP2;ratioP2;P2;SDS_P1;SDS_P2;PMS_P1;PMS_P2;Temp;Humidity;BMP_temperature;BMP_pressure;BME280_temperature;BME280_humidity;BME280_pressure;Samples;Min_cycle;Max_cycle;Signal;HPM_P1;HPM_P2
2022/09/17 14:09:31;;;;;;;3.38;1.20;;;;;;;;;;5081899;27;20551;-86
2022/09/17 14:11:57;;;;;;;0.73;0.73;;;;;;;;;;5061683;28;20733;-86
2022/09/17 14:14:44;;;;;;;1.08;0.95;;;13.80;99.90;;;;;;5051406;28;20201;-87
2022/09/17 14:17:11;;;;;;;1.00;0.90;;;;;;;;;;5058154;28;20241;-86
2022/09/17 14:19:49;;;;;;;0.80;0.80;;;13.80;99.90;;;;;;5064239;28;20187;-86
2022/09/17 14:22:23;;;;;;;2.00;0.95;;;13.80;99.90;;;;;;5069169;28;20175;-87
2022/09/17 14:24:53;;;;;;;1.23;1.02;;;13.80;99.90;;;;;;5061001;28;20191;-88
2022/09/17 14:27:37;;;;;;;0.93;0.93;;;13.70;99.90;;;;;;5031841;28;20227;-88
2022/09/17 14:30:20;;;;;;;1.40;1.10;;;13.70;99.90;;;;;;5043644;28;20198;-87
2022/09/17 14:33:04;;;;;;;1.05;0.95;;;13.60;99.90;;;;;;5067967;28;20206;-87
2022/09/17 14:35:47;;;;;;;1.50;1.40;;;13.60;99.90;;;;;;5057788;28;20197;-87
2022/09/17 14:38:46;;;;;;;1.10;1.00;;;13.60;99.90;;;;;;5061847;28;20221;-87
2022/09/17 14:41:12;;;;;;;1.55;1.38;;;13.60;99.90;;;;;;5060214;28;20728;-87
2022/09/17 14:44:00;;;;;;;1.00;1.00;;;13.70;99.90;;;;;;5050933;28;20204;-88
2022/09/17 14:46:53;;;;;;;2.15;1.40;;;13.80;99.90;;;;;;5042186;28;20729;-86
2022/09/17 14:49:28;;;;;;;1.20;1.10;;;13.80;99.90;;;;;;5048058;28;20722;-89
2022/09/17 14:51:55;;;;;;;0.88;0.88;;;13.70;99.90;;;;;;5064540;28;20187;-88
2022/09/17 14:54:31;;;;;;;1.08;1.08;;;13.70;99.90;;;;;;5049929;28;20191;-87
2022/09/17 14:57:07;;;;;;;1.15;1.10;;;13.80;99.90;;;;;;5045916;28;20187;-87
2022/09/17 14:59:51;;;;;;;2.88;1.13;;;13.80;99.90;;;;;;5068035;28;20190;-87
2022/09/17 15:02:44;;;;;;;1.27;1.15;;;13.80;99.90;;;;;;5066297;28;20197;-86
2022/09/17 15:05:26;;;;;;;1.15;0.90;;;13.80;99.90;;;;;;5058354;28;20223;-86
2022/09/17 15:08:04;;;;;;;2.03;0.90;;;13.80;99.90;;;;;;5056900;28;20305;-88
2022/09/17 15:10:30;;;;;;;0.93;0.77;;;13.80;99.90;;;;;;5029813;28;20187;-86
2022/09/17 15:12:57;;;;;;;1.45;1.10;;;13.80;99.90;;;;;;5028386;28;20188;-84
2022/09/17 15:15:25;;;;;;;1.50;1.33;;;13.80;99.90;;;;;;5029367;28;20222;-87
2022/09/17 15:17:51;;;;;;;0.50;0.50;;;13.80;99.90;;;;;;5048183;28;20191;-86
2022/09/17 15:20:26;;;;;;;1.15;0.82;;;13.80;99.90;;;;;;4999513;28;20252;-85
2022/09/17 15:23:11;;;;;;;0.75;0.75;;;13.90;99.90;;;;;;5033706;28;20184;-88
2022/09/17 15:25:38;;;;;;;0.60;0.60;;;13.90;99.90;;;;;;5011098;28;20650;-87
2022/09/17 15:28:25;;;;;;;0.60;0.60;;;13.80;99.90;;;;;;5009881;28;20220;-88
2022/09/17 15:30:51;;;;;;;1.08;0.98;;;13.40;99.90;;;;;;5002745;28;20192;-89
2022/09/17 15:33:18;;;;;;;0.88;0.88;;;14.50;99.90;;;;;;5012040;28;20193;-87
2022/09/17 15:36:13;;;;;;;0.70;0.70;;;13.60;99.90;;;;;;5030616;28;20180;-85
2022/09/17 15:38:40;;;;;;;1.48;0.70;;;13.60;99.90;;;;;;5015566;28;20339;-86
2022/09/17 15:41:18;;;;;;;0.82;0.82;;;13.60;99.90;;;;;;5000417;28;20268;-86
2022/09/17 15:43:45;;;;;;;0.52;0.52;;;13.60;99.90;;;;;;5016309;28;20545;-86
2022/09/17 15:46:30;;;;;;;1.02;0.95;;;13.50;99.90;;;;;;5033127;28;20290;-88
2022/09/17 15:48:59;;;;;;;0.55;0.55;;;13.50;99.90;;;;;;5012824;28;20568;-87
2022/09/17 15:51:26;;;;;;;0.60;0.57;;;13.40;99.90;;;;;;5014396;28;20195;-87
2022/09/17 15:54:00;;;;;;;1.23;1.13;;;13.40;99.90;;;;;;5006262;28;20181;-88
2022/09/17 15:56:29;;;;;;;1.17;0.73;;;13.40;99.90;;;;;;5012813;28;20184;-89
2022/09/17 15:59:34;;;;;;;0.90;0.90;;;13.40;99.90;;;;;;4999000;28;20292;-89
2022/09/17 16:02:01;;;;;;;1.27;1.00;;;13.30;99.90;;;;;;5009831;28;20211;-88
2022/09/17 16:04:31;;;;;;;1.33;1.05;;;13.30;99.90;;;;;;5022078;28;20211;-89
2022/09/17 16:07:24;;;;;;;1.13;0.93;;;13.30;99.90;;;;;;4993687;28;20267;-88
2022/09/17 16:09:53;;;;;;;1.52;1.00;;;15.50;99.90;;;;;;5040229;28;20211;-88
2022/09/17 16:12:29;;;;;;;0.75;0.75;;;11.20;99.90;;;;;;5057052;28;20222;-88
2022/09/17 16:14:57;;;;;;;0.60;0.60;;;13.00;99.90;;;;;;5049739;28;20202;-88
2022/09/17 16:17:26;;;;;;;1.33;0.68;;;13.00;99.90;;;;;;5048811;28;20633;-88
2022/09/17 16:19:54;;;;;;;2.65;1.35;;;13.00;99.90;;;;;;5040661;28;20180;-92
2022/09/17 16:22:20;;;;;;;0.95;0.90;;;12.90;99.90;;;;;;5039249;28;20184;-88
2022/09/17 16:24:45;;;;;;;1.95;1.15;;;12.90;99.90;;;;;;5051713;28;20550;-89
2022/09/17 16:27:23;;;;;;;1.02;0.82;;;12.80;99.90;;;;;;5033705;28;20172;-90
2022/09/17 16:29:50;;;;;;;3.67;1.40;;;12.80;99.90;;;;;;5051671;28;20196;-89
2022/09/17 16:32:16;;;;;;;1.50;1.00;;;12.70;99.90;;;;;;5050395;28;20192;-90
2022/09/17 16:34:41;;;;;;;3.35;1.83;;;12.70;99.90;;;;;;5047842;28;20194;-88
2022/09/17 16:37:10;;;;;;;0.90;0.90;;;12.70;99.90;;;;;;5018928;28;20238;-90
2022/09/17 16:39:35;;;;;;;1.30;1.20;;;12.60;99.90;;;;;;5049552;28;20184;-89
2022/09/17 16:42:01;;;;;;;2.03;1.17;;;12.50;99.90;;;;;;5031183;28;20188;-88
2022/09/17 16:44:27;;;;;;;1.02;1.00;;;12.50;99.90;;;;;;5035103;28;20345;-89
2022/09/17 16:46:52;;;;;;;1.10;0.80;;;12.10;99.90;;;;;;5037276;28;20188;-89
2022/09/17 16:49:18;;;;;;;2.38;0.95;;;12.30;99.90;;;;;;5050408;28;20736;-88
2022/09/17 16:51:44;;;;;;;1.05;0.95;;;12.30;99.90;;;;;;5015665;28;20219;-89
2022/09/17 16:54:13;;;;;;;1.60;1.30;;;12.40;99.90;;;;;;5028765;28;20202;-89
2022/09/17 16:56:38;;;;;;;3.92;1.95;;;12.10;99.90;;;;;;5032705;28;20192;-87
2022/09/17 16:59:04;;;;;;;1.38;1.17;;;12.10;99.90;;;;;;5030569;28;20680;-90
2022/09/17 17:01:30;;;;;;;1.70;1.60;;;12.10;99.90;;;;;;5019316;28;20310;-89
2022/09/17 17:03:58;;;;;;;4.22;1.80;;;12.00;99.90;;;;;;5033585;28;20191;-89
2022/09/17 17:06:23;;;;;;;2.10;1.67;;;12.00;99.90;;;;;;5038801;28;20188;-88
2022/09/17 17:08:50;;;;;;;2.03;1.50;;;11.90;99.90;;;;;;5044226;28;20247;-88
2022/09/17 17:11:16;;;;;;;2.97;1.60;;;11.90;99.90;;;;;;5033478;28;20192;-87
2022/09/17 17:13:42;;;;;;;2.15;1.50;;;11.40;99.90;;;;;;5037204;28;20192;-89
2022/09/17 17:16:12;;;;;;;1.63;1.52;;;11.80;99.90;;;;;;5047484;28;20192;-88
2022/09/17 17:18:42;;;;;;;3.28;1.50;;;11.80;99.90;;;;;;5042733;28;20212;-90
2022/09/17 17:21:10;;;;;;;1.92;1.17;;;11.70;99.90;;;;;;5049834;28;20188;-89
2022/09/17 17:23:36;;;;;;;5.10;3.10;;;11.70;99.90;;;;;;5046165;28;20211;-90
2022/09/17 17:26:02;;;;;;;1.92;1.83;;;11.70;99.90;;;;;;5041961;28;20716;-89
2022/09/17 17:28:33;;;;;;;1.40;1.27;;;11.60;99.90;;;;;;5045515;28;20228;-88
2022/09/17 17:30:59;;;;;;;6.40;1.60;;;11.60;99.90;;;;;;5046280;28;20190;-87
2022/09/17 17:33:25;;;;;;;2.58;2.38;;;11.70;99.90;;;;;;5045206;28;20283;-88
2022/09/17 17:35:50;;;;;;;2.15;2.00;;;11.60;99.90;;;;;;5031051;28;20195;-88
2022/09/17 17:38:17;;;;;;;1.42;1.33;;;11.70;99.90;;;;;;5048988;28;20641;-88
2022/09/17 17:40:44;;;;;;;2.35;1.80;;;11.50;99.90;;;;;;5032831;28;20188;-89
2022/09/17 17:43:10;;;;;;;2.53;1.80;;;11.60;99.90;;;;;;5050970;28;20249;-89
2022/09/17 17:45:37;;;;;;;2.53;1.85;;;11.50;99.90;;;;;;5031175;28;20195;-87
2022/09/17 17:48:02;;;;;;;4.30;1.83;;;11.50;99.90;;;;;;5047882;28;20220;-87
2022/09/17 17:50:28;;;;;;;3.75;1.85;;;11.40;99.90;;;;;;5048230;28;20472;-88
2022/09/17 17:52:54;;;;;;;1.52;1.35;;;;;;;;;;5046788;28;20199;-87
2022/09/17 17:55:20;;;;;;;2.80;2.08;;;11.40;99.90;;;;;;5032886;28;20200;-87
2022/09/17 17:57:46;;;;;;;4.20;2.70;;;11.40;99.90;;;;;;5047670;28;20191;-90
2022/09/17 18:00:15;;;;;;;3.40;2.25;;;11.30;99.90;;;;;;5053150;28;20214;-88
2022/09/17 18:02:41;;;;;;;3.33;1.90;;;11.30;99.90;;;;;;5034586;28;20183;-89
2022/09/17 18:05:06;;;;;;;2.40;2.20;;;11.30;99.90;;;;;;5047847;28;20877;-88
2022/09/17 18:07:32;;;;;;;3.95;2.40;;;11.20;99.90;;;;;;5051274;28;20731;-90
2022/09/17 18:09:58;;;;;;;2.97;2.55;;;11.30;99.90;;;;;;5046420;28;20581;-89
2022/09/17 18:12:27;;;;;;;2.60;1.52;;;11.20;99.90;;;;;;5039180;28;20193;-88
2022/09/17 18:14:52;;;;;;;2.47;2.10;;;11.10;99.90;;;;;;5034423;28;20271;-86
2022/09/17 18:17:18;;;;;;;3.63;2.40;;;11.10;99.90;;;;;;5048458;28;20342;-89
2022/09/17 18:19:44;;;;;;;1.63;1.52;;;11.10;99.90;;;;;;5042978;28;20259;-89
2022/09/17 18:22:09;;;;;;;3.58;2.78;;;11.00;99.90;;;;;;5037295;28;20176;-88
2022/09/17 18:24:35;;;;;;;1.40;1.30;;;11.10;99.90;;;;;;5042677;28;20189;-87
2022/09/17 18:27:01;;;;;;;2.00;1.80;;;11.00;99.90;;;;;;5026906;28;20226;-87
2022/09/17 18:29:28;;;;;;;2.45;2.03;;;11.00;99.90;;;;;;5042337;28;20742;-89
2022/09/17 18:31:53;;;;;;;2.25;2.05;;;11.60;99.90;;;;;;5047457;28;20198;-88
2022/09/17 18:34:19;;;;;;;2.23;2.07;;;11.00;99.90;;;;;;5033038;28;20635;-88
2022/09/17 18:36:45;;;;;;;3.17;2.88;;;11.00;99.90;;;;;;5048301;28;20236;-88
2022/09/17 18:39:13;;;;;;;2.03;1.93;;;10.90;99.90;;;;;;5054900;28;20181;-88
2022/09/17 18:41:39;;;;;;;2.53;2.20;;;11.30;99.90;;;;;;5063852;28;20179;-88
2022/09/17 18:44:06;;;;;;;2.58;2.13;;;10.90;99.90;;;;;;5068152;28;20164;-89
2022/09/17 18:46:32;;;;;;;3.22;2.38;;;10.90;99.90;;;;;;5059114;28;20168;-87
2022/09/17 18:48:59;;;;;;;2.88;2.55;;;10.70;99.90;;;;;;5064623;28;20191;-88
2022/09/17 18:51:26;;;;;;;2.33;2.03;;;10.80;99.90;;;;;;5061200;28;20163;-89
2022/09/17 18:53:52;;;;;;;4.10;2.87;;;10.70;99.90;;;;;;5057785;28;20221;-90
2022/09/17 18:56:20;;;;;;;4.65;3.05;;;11.60;99.90;;;;;;5066517;28;20181;-89
2022/09/17 18:58:48;;;;;;;3.55;2.60;;;10.60;99.90;;;;;;5065629;28;20183;-89
2022/09/17 19:01:14;;;;;;;3.58;3.28;;;10.80;99.90;;;;;;5066159;28;20164;-89
2022/09/17 19:03:40;;;;;;;3.33;2.20;;;;;;;;;;5068499;28;20180;-88
2022/09/17 19:06:08;;;;;;;3.47;2.47;;;10.60;99.90;;;;;;5067872;28;20173;-87
2022/09/17 19:08:34;;;;;;;2.33;2.15;;;10.60;99.90;;;;;;5045750;28;20223;-89
2022/09/17 19:11:00;;;;;;;3.97;2.63;;;10.60;99.90;;;;;;5042643;28;20714;-88
2022/09/17 19:13:32;;;;;;;3.43;2.40;;;10.60;99.90;;;;;;5045060;28;20211;-90
2022/09/17 19:15:58;;;;;;;2.95;2.20;;;10.60;99.90;;;;;;5043840;28;20187;-89
2022/09/17 19:18:24;;;;;;;2.33;2.13;;;10.60;99.90;;;;;;5034502;28;20238;-89
2022/09/17 19:20:50;;;;;;;8.17;2.67;;;10.50;99.90;;;;;;5047697;28;20172;-89
2022/09/17 19:23:16;;;;;;;4.27;2.63;;;12.80;99.90;;;;;;5045870;28;20598;-90
2022/09/17 19:25:42;;;;;;;5.40;3.13;;;10.80;99.90;;;;;;5022337;28;20208;-91
2022/09/17 19:28:08;;;;;;;4.00;2.63;;;;;;;;;;5050679;28;20219;-89
2022/09/17 19:30:34;;;;;;;2.87;2.33;;;10.40;99.90;;;;;;5039436;28;20577;-89
2022/09/17 19:33:00;;;;;;;4.35;3.35;;;10.40;99.90;;;;;;5057662;28;20194;-89
2022/09/17 19:35:26;;;;;;;4.28;3.03;;;10.30;99.90;;;;;;5045592;28;20195;-88
2022/09/17 19:37:55;;;;;;;4.28;3.75;;;10.30;99.90;;;;;;5046641;28;20211;-89
2022/09/17 19:40:21;;;;;;;7.80;4.53;;;10.30;99.90;;;;;;5039547;28;20188;-88
2022/09/17 19:42:54;;;;;;;7.07;3.97;;;11.30;99.90;;;;;;5044137;28;20185;-89
2022/09/17 19:45:24;;;;;;;6.97;4.97;;;10.30;99.90;;;;;;5055508;28;20184;-90
2022/09/17 19:47:50;;;;;;;6.95;4.35;;;11.20;99.90;;;;;;5063526;28;20302;-89
2022/09/17 19:50:17;;;;;;;9.38;5.18;;;10.20;99.90;;;;;;5051858;28;20241;-89
2022/09/17 19:52:43;;;;;;;8.90;6.97;;;10.20;99.90;;;;;;5043984;28;20255;-89
2022/09/17 19:55:11;;;;;;;8.18;6.57;;;10.20;99.90;;;;;;5053658;28;20187;-88
2022/09/17 19:57:37;;;;;;;8.37;6.90;;;10.20;99.90;;;;;;5067377;28;20271;-89
2022/09/17 20:00:08;;;;;;;7.13;4.77;;;10.40;99.90;;;;;;5044552;28;20199;-88
2022/09/17 20:02:33;;;;;;;11.00;6.47;;;10.20;99.90;;;;;;5036314;28;20184;-89
2022/09/17 20:04:59;;;;;;;11.97;6.53;;;10.10;99.90;;;;;;5036676;28;20200;-89
2022/09/17 20:07:27;;;;;;;11.33;7.13;;;10.10;99.90;;;;;;5032468;28;20340;-89
2022/09/17 20:09:53;;;;;;;8.33;5.37;;;10.10;99.90;;;;;;5005954;28;20176;-89
2022/09/17 20:12:19;;;;;;;8.60;6.50;;;10.10;99.90;;;;;;4999736;28;20691;-89
2022/09/17 20:14:45;;;;;;;15.93;5.85;;;;;;;;;;5012278;28;20672;-88
2022/09/17 20:17:12;;;;;;;7.53;5.87;;;10.10;99.90;;;;;;5016774;28;20185;-88
2022/09/17 20:19:37;;;;;;;5.97;4.87;;;10.10;99.90;;;;;;5000198;28;20177;-88
2022/09/17 20:22:03;;;;;;;9.80;5.37;;;10.10;99.90;;;;;;5035375;28;20271;-88
2022/09/17 20:24:29;;;;;;;16.17;8.00;;;10.10;99.90;;;;;;5033629;28;20302;-88
2022/09/17 20:26:55;;;;;;;9.20;5.70;;;10.10;99.90;;;;;;5025286;28;20209;-88
2022/09/17 20:29:21;;;;;;;11.90;7.03;;;10.80;99.90;;;;;;5030136;28;20544;-89
2022/09/17 20:31:46;;;;;;;6.32;4.97;;;10.10;99.90;;;;;;5014920;28;20212;-90
2022/09/17 20:34:12;;;;;;;7.37;5.30;;;10.20;99.90;;;;;;4992776;28;20181;-88
2022/09/17 20:36:37;;;;;;;12.73;6.97;;;10.60;99.90;;;;;;4990003;28;20546;-90
2022/09/17 20:39:05;;;;;;;9.97;6.17;;;10.20;99.90;;;;;;5016862;28;20186;-89
2022/09/17 20:41:30;;;;;;;11.57;7.40;;;10.70;99.90;;;;;;4998271;28;20196;-89
2022/09/17 20:43:56;;;;;;;9.23;5.60;;;10.30;99.90;;;;;;5015728;28;20186;-89
2022/09/17 20:46:23;;;;;;;4.87;4.20;;;10.30;99.90;;;;;;5016151;28;20204;-87
2022/09/17 20:48:51;;;;;;;6.93;5.03;;;10.30;99.90;;;;;;5030236;28;20283;-87
2022/09/17 20:51:22;;;;;;;5.18;3.05;;;11.50;99.90;;;;;;5015770;28;20212;-87
2022/09/17 20:53:48;;;;;;;4.27;2.97;;;10.30;99.90;;;;;;5035146;28;20255;-87
2022/09/17 20:56:23;;;;;;;4.63;3.83;;;10.40;99.90;;;;;;5001764;28;20185;-87
2022/09/17 20:59:28;;;;;;;8.32;3.67;;;10.40;99.90;;;;;;5034834;28;20172;-87
2022/09/17 21:01:54;;;;;;;4.40;3.27;;;10.40;99.90;;;;;;5012762;28;20185;-87
2022/09/17 21:04:20;;;;;;;3.53;3.23;;;10.40;99.90;;;;;;5013388;28;20657;-87
2022/09/17 21:06:49;;;;;;;4.47;2.58;;;10.40;99.90;;;;;;4997604;28;20173;-87
2022/09/17 21:09:15;;;;;;;3.43;3.17;;;10.40;99.90;;;;;;5047042;28;20305;-87
2022/09/17 21:11:42;;;;;;;2.80;2.60;;;10.40;99.90;;;;;;5033804;28;20637;-88
2022/09/17 21:14:09;;;;;;;7.97;4.10;;;10.40;99.90;;;;;;5035545;28;20180;-89
2022/09/17 21:16:35;;;;;;;5.07;3.37;;;10.40;99.90;;;;;;5035489;28;20176;-88
2022/09/17 21:19:04;;;;;;;4.47;3.20;;;10.40;99.90;;;;;;5034340;28;20189;-88
2022/09/17 21:21:33;;;;;;;3.35;2.88;;;10.40;99.90;;;;;;5036057;28;20176;-88
2022/09/17 21:24:04;;;;;;;4.57;3.43;;;10.20;99.90;;;;;;5037810;28;20180;-88
2022/09/17 21:26:30;;;;;;;4.90;3.80;;;10.40;99.90;;;;;;5050238;28;20176;-88
2022/09/17 21:28:56;;;;;;;16.27;3.40;;;10.50;99.90;;;;;;5034475;28;20248;-89
2022/09/17 21:31:27;;;;;;;5.43;3.70;;;10.40;99.90;;;;;;5035068;28;20309;-88
2022/09/17 21:33:59;;;;;;;3.83;3.30;;;10.50;99.90;;;;;;5035000;28;20191;-89
2022/09/17 21:36:28;;;;;;;5.60;3.40;;;10.40;99.90;;;;;;5034468;28;20668;-89
2022/09/17 21:38:56;;;;;;;4.90;3.70;;;10.50;99.90;;;;;;5034216;28;20177;-88
2022/09/17 21:41:23;;;;;;;7.90;4.40;;;11.60;99.90;;;;;;5033585;28;20199;-88
2022/09/17 21:43:50;;;;;;;6.50;3.07;;;9.50;99.90;;;;;;5035079;28;20176;-88
2022/09/17 21:46:19;;;;;;;3.20;2.70;;;11.00;99.90;;;;;;5052862;28;20266;-88
2022/09/17 21:48:47;;;;;;;4.37;3.20;;;10.40;99.90;;;;;;5054211;28;20207;-88
2022/09/17 21:51:47;;;;;;;4.83;3.90;;;10.40;99.90;;;;;;5052904;28;20198;-88
2022/09/17 21:54:15;;;;;;;3.27;2.97;;;10.40;99.90;;;;;;5052369;28;20176;-88
2022/09/17 21:56:42;;;;;;;5.63;3.80;;;11.80;99.90;;;;;;5052768;28;20602;-88
2022/09/17 21:59:10;;;;;;;4.50;3.30;;;10.40;99.90;;;;;;5052874;28;20616;-88
2022/09/17 22:01:38;;;;;;;3.90;3.50;;;10.40;99.90;;;;;;5052244;28;20528;-88
2022/09/17 22:04:06;;;;;;;4.00;2.90;;;10.40;99.90;;;;;;5053367;28;20207;-88
2022/09/17 22:06:32;;;;;;;4.43;3.80;;;10.40;99.90;;;;;;5053400;28;20221;-88
2022/09/17 22:09:00;;;;;;;3.63;3.17;;;10.50;99.90;;;;;;5035386;28;20242;-88
2022/09/17 22:11:28;;;;;;;3.13;2.83;;;10.40;99.90;;;;;;5052594;28;20271;-88
2022/09/17 22:13:57;;;;;;;4.13;3.40;;;10.70;99.90;;;;;;5054084;28;20535;-88
2022/09/17 22:16:25;;;;;;;5.67;3.63;;;10.50;99.90;;;;;;5054409;28;20175;-88
2022/09/17 22:18:51;;;;;;;5.13;3.87;;;10.50;99.90;;;;;;5052887;28;20191;-87
2022/09/17 22:21:20;;;;;;;3.90;2.93;;;11.30;99.90;;;;;;5054499;28;20271;-88
2022/09/17 22:23:46;;;;;;;4.43;3.53;;;10.50;99.90;;;;;;5055454;28;20632;-88
2022/09/17 22:26:12;;;;;;;5.30;4.37;;;10.50;99.90;;;;;;5050198;28;20271;-89
2022/09/17 22:28:38;;;;;;;4.73;3.40;;;10.50;99.90;;;;;;5033782;28;20300;-88
2022/09/17 22:31:07;;;;;;;5.77;4.47;;;10.60;99.90;;;;;;5038415;28;20623;-89
2022/09/17 22:33:34;;;;;;;3.30;2.97;;;10.50;99.90;;;;;;5055946;28;20222;-89
2022/09/17 22:36:16;;;;;;;5.47;3.37;;;11.20;99.90;;;;;;5056445;28;20554;-89
2022/09/17 22:38:46;;;;;;;6.70;4.50;;;10.50;99.90;;;;;;5037131;28;20204;-89
2022/09/17 22:41:14;;;;;;;4.70;3.30;;;10.90;99.90;;;;;;5037559;28;20172;-89
2022/09/17 22:43:40;;;;;;;2.63;2.13;;;10.50;99.90;;;;;;5037777;28;20227;-88
2022/09/17 22:46:14;;;;;;;4.67;2.97;;;10.70;99.90;;;;;;5021684;28;20212;-89
2022/09/17 22:48:40;;;;;;;3.17;2.87;;;10.50;99.90;;;;;;5038509;28;20222;-90
2022/09/17 22:51:06;;;;;;;4.07;3.13;;;10.40;99.90;;;;;;5038660;28;20185;-89
2022/09/17 22:53:33;;;;;;;6.33;3.63;;;10.40;99.90;;;;;;5057636;28;20214;-89
2022/09/17 22:56:00;;;;;;;2.65;2.40;;;10.40;99.90;;;;;;5056785;28;20559;-89
2022/09/17 22:58:26;;;;;;;5.27;3.17;;;10.50;99.90;;;;;;5054297;28;20607;-89
2022/09/17 23:00:53;;;;;;;3.70;3.22;;;12.70;99.90;;;;;;5037930;28;20188;-89
2022/09/17 23:03:25;;;;;;;6.63;3.75;;;10.50;99.90;;;;;;5039545;28;20184;-89
2022/09/17 23:05:51;;;;;;;3.50;2.77;;;10.40;99.90;;;;;;5052356;28;20180;-89
2022/09/17 23:08:17;;;;;;;2.93;2.70;;;12.00;99.90;;;;;;5026125;28;20695;-89
2022/09/17 23:10:43;;;;;;;2.90;2.70;;;10.40;99.90;;;;;;4998630;28;20267;-88
2022/09/17 23:13:10;;;;;;;2.53;2.30;;;10.40;99.90;;;;;;5025867;28;20546;-88
2022/09/17 23:15:36;;;;;;;4.43;2.63;;;12.00;99.90;;;;;;5036861;28;20212;-88
2022/09/17 23:18:03;;;;;;;2.73;2.03;;;11.90;99.90;;;;;;5019691;28;20210;-88
2022/09/17 23:20:30;;;;;;;2.87;2.27;;;10.40;99.90;;;;;;5037034;28;20175;-89
2022/09/17 23:22:57;;;;;;;3.67;3.13;;;10.40;99.90;;;;;;5048941;28;20193;-89
2022/09/17 23:25:23;;;;;;;3.70;2.70;;;10.40;99.90;;;;;;5035481;28;20205;-88
2022/09/17 23:27:48;;;;;;;6.40;3.63;;;10.60;99.90;;;;;;5008257;28;20248;-89
2022/09/17 23:30:15;;;;;;;3.30;2.90;;;10.50;99.90;;;;;;5021297;28;20184;-88
2022/09/17 23:32:41;;;;;;;6.00;3.23;;;10.50;99.90;;;;;;5031789;28;20253;-88
2022/09/17 23:35:07;;;;;;;5.43;3.87;;;10.60;99.90;;;;;;5044393;28;20181;-89
2022/09/17 23:37:33;;;;;;;4.40;3.35;;;10.60;99.90;;;;;;5019024;28;20541;-89
2022/09/17 23:39:59;;;;;;;3.40;3.10;;;10.60;99.90;;;;;;5036016;28;20172;-89
2022/09/17 23:42:24;;;;;;;6.20;4.50;;;10.60;99.90;;;;;;5003023;28;20215;-89
2022/09/17 23:44:50;;;;;;;5.37;4.17;;;10.60;99.90;;;;;;5035571;28;20184;-89
2022/09/17 23:47:15;;;;;;;5.73;4.37;;;10.60;99.90;;;;;;5019406;28;20205;-89
2022/09/17 23:49:41;;;;;;;4.15;3.22;;;11.30;99.90;;;;;;5035377;28;20223;-88
2022/09/17 23:52:07;;;;;;;3.58;2.80;;;10.60;99.90;;;;;;5018406;28;20189;-88
2022/09/17 23:54:33;;;;;;;3.17;2.87;;;10.60;99.90;;;;;;4981672;28;20280;-89
2022/09/17 23:56:58;;;;;;;4.97;3.37;;;10.60;99.90;;;;;;5014892;28;20189;-89
2022/09/17 23:59:24;;;;;;;3.27;2.67;;;10.60;99.90;;;;;;5015667;28;20195;-89
